createdAt,value
2023-02-06T00:00:11.220Z,57.14
2023-02-06T00:02:40.573Z,57.18
2023-02-06T00:05:10.535Z,56.67
2023-02-06T00:07:39.752Z,56.94
2023-02-06T00:10:10.148Z,57.44
2023-02-06T00:12:40.813Z,56.65
2023-02-06T00:15:11.093Z,57.29
2023-02-06T00:17:40.518Z,57.30
2023-02-06T00:20:11.769Z,57.07
2023-02-06T00:22:41.245Z,57.66
2023-02-06T00:25:10.959Z,57.10
2023-02-06T00:27:41.527Z,56.06
2023-02-06T00:30:11.732Z,56.55
2023-02-06T00:32:40.831Z,56.39
2023-02-06T00:35:10.531Z,56.64
2023-02-06T00:37:39.760Z,56.22
2023-02-06T00:40:10.425Z,55.56
2023-02-06T00:42:41.837Z,55.96
2023-02-06T00:45:11.701Z,55.99
2023-02-06T00:47:41.005Z,56.50
2023-02-06T00:50:12.346Z,56.29
2023-02-06T00:52:41.602Z,57.69
2023-02-06T00:55:11.175Z,56.90
2023-02-06T00:57:41.885Z,57.26
2023-02-06T01:00:12.844Z,56.75
2023-02-06T01:02:42.242Z,56.94
2023-02-06T01:05:12.336Z,56.61
2023-02-06T01:07:42.341Z,56.40
2023-02-06T01:10:14.038Z,56.26
2023-02-06T01:12:45.041Z,56.95
2023-02-06T01:15:15.930Z,56.43
2023-02-06T01:17:45.414Z,56.16
2023-02-06T01:20:15.533Z,56.40
2023-02-06T01:22:45.227Z,57.14
2023-02-06T01:25:14.502Z,57.07
2023-02-06T01:27:45.592Z,56.84
2023-02-06T01:30:15.961Z,56.55
2023-02-06T01:32:45.605Z,56.18
2023-02-06T01:35:18.114Z,56.17
2023-02-06T01:37:47.742Z,56.50
2023-02-06T01:40:19.075Z,56.50
2023-02-06T01:42:50.051Z,56.44
2023-02-06T01:45:36.997Z,56.15
2023-02-06T01:48:11.050Z,56.25
2023-02-06T01:50:43.536Z,56.18
2023-02-06T01:53:14.415Z,55.78
2023-02-06T01:55:45.866Z,55.63
2023-02-06T01:58:22.637Z,55.15
2023-02-06T02:00:52.113Z,55.19
2023-02-06T02:03:21.690Z,56.68
2023-02-06T02:05:51.707Z,56.15
2023-02-06T02:08:26.833Z,56.14
2023-02-06T02:10:56.449Z,56.04
2023-02-06T02:13:27.524Z,56.21
2023-02-06T02:16:04.140Z,56.40
2023-02-06T02:18:49.416Z,56.11
2023-02-06T02:21:59.479Z,55.97
2023-02-06T02:24:51.739Z,55.66
2023-02-06T02:27:53.534Z,55.25
2023-02-06T02:31:01.807Z,54.84
2023-02-06T02:34:03.844Z,55.96
2023-02-06T02:36:40.262Z,55.75
2023-02-06T02:39:19.897Z,55.39
2023-02-06T02:41:54.422Z,55.79
2023-02-06T02:44:32.490Z,55.52
2023-02-06T02:47:08.405Z,56.18
2023-02-06T02:49:39.207Z,56.32
2023-02-06T02:52:10.069Z,56.39
2023-02-06T02:54:39.346Z,56.31
2023-02-06T02:57:14.892Z,56.18
2023-02-06T02:59:47.599Z,56.09
2023-02-06T03:02:20.668Z,56.26
2023-02-06T03:04:52.551Z,55.47
2023-02-06T03:07:32.725Z,55.50
2023-02-06T03:10:13.130Z,55.97
2023-02-06T03:12:49.877Z,56.39
2023-02-06T03:15:28.282Z,56.02
2023-02-06T03:18:05.323Z,56.12
2023-02-06T03:20:37.634Z,56.38
2023-02-06T03:23:09.517Z,56.28
2023-02-06T03:25:42.980Z,56.86
2023-02-06T03:28:18.069Z,56.26
2023-02-06T03:36:01.116Z,55.25
2023-02-06T03:38:32.173Z,55.33
2023-02-06T03:41:03.130Z,55.35
2023-02-06T03:43:33.132Z,55.68
2023-02-06T03:46:06.332Z,56.14
2023-02-06T03:48:39.099Z,56.66
2023-02-06T03:51:14.418Z,55.51
2023-02-06T03:53:46.879Z,55.30
2023-02-06T03:56:23.391Z,55.07
2023-02-06T03:58:52.952Z,54.73
2023-02-06T04:01:22.355Z,55.08
2023-02-06T04:03:52.676Z,54.23
2023-02-06T04:06:22.228Z,53.87
2023-02-06T04:08:53.630Z,53.82
2023-02-06T04:11:22.869Z,53.59
2023-02-06T04:13:52.436Z,53.83
2023-02-06T04:16:21.647Z,54.87
2023-02-06T04:18:51.210Z,53.89
2023-02-06T04:21:20.444Z,54.15
2023-02-06T04:23:49.855Z,53.82
2023-02-06T04:26:20.385Z,54.93
2023-02-06T04:28:49.826Z,55.12
2023-02-06T04:31:19.233Z,54.49
2023-02-06T04:33:48.735Z,53.85
2023-02-06T04:36:17.908Z,54.01
2023-02-06T04:38:47.402Z,54.67
2023-02-06T04:41:16.527Z,55.21
2023-02-06T04:43:47.416Z,55.54
2023-02-06T04:46:16.612Z,54.87
2023-02-06T04:48:46.059Z,55.17
2023-02-06T04:51:15.309Z,54.15
2023-02-06T04:53:44.916Z,54.96
2023-02-06T04:56:14.933Z,54.90
2023-02-06T04:58:44.345Z,55.24
2023-02-06T05:01:16.895Z,54.40
2023-02-06T05:03:46.673Z,53.89
2023-02-06T05:06:16.625Z,53.61
2023-02-06T05:08:46.071Z,53.27
2023-02-06T05:11:15.325Z,53.89
2023-02-06T05:13:45.163Z,53.29
2023-02-06T05:16:17.624Z,52.98
2023-02-06T05:18:47.329Z,53.61
2023-02-06T05:21:16.968Z,54.18
2023-02-06T05:23:46.434Z,53.84
2023-02-06T05:26:15.616Z,54.24
2023-02-06T05:28:45.282Z,53.43
2023-02-06T05:31:19.869Z,54.56
2023-02-06T05:33:52.489Z,54.00
2023-02-06T05:36:22.895Z,53.33
2023-02-06T05:38:52.455Z,52.86
2023-02-06T05:41:21.886Z,52.48
2023-02-06T05:43:51.519Z,53.68
2023-02-06T05:46:22.160Z,54.66
2023-02-06T05:48:51.774Z,54.32
2023-02-06T05:51:21.053Z,54.36
2023-02-06T05:53:50.494Z,54.50
2023-02-06T05:56:19.705Z,53.85
2023-02-06T05:58:49.409Z,54.63
2023-02-06T06:01:18.604Z,54.77
2023-02-06T06:03:49.545Z,56.19
2023-02-06T06:06:18.667Z,56.05
2023-02-06T06:08:48.322Z,54.77
2023-02-06T06:11:17.529Z,54.67
2023-02-06T06:13:46.986Z,55.01
2023-02-06T06:16:16.277Z,55.00
2023-02-06T06:18:45.707Z,54.92
2023-02-06T06:21:16.499Z,55.43
2023-02-06T06:23:46.132Z,55.25
2023-02-06T06:26:15.445Z,55.66
2023-02-06T06:28:44.883Z,55.76
2023-02-06T06:31:15.134Z,55.54
2023-02-06T06:33:45.060Z,54.95
2023-02-06T06:36:16.196Z,54.61
2023-02-06T06:38:45.763Z,55.17
2023-02-06T06:41:15.152Z,55.29
2023-02-06T06:43:44.947Z,55.94
2023-02-06T06:46:14.063Z,54.75
2023-02-06T06:48:43.594Z,55.14
2023-02-06T06:51:12.861Z,56.26
2023-02-06T06:53:43.879Z,56.19
2023-02-06T06:56:15.661Z,55.07
2023-02-06T06:58:45.203Z,55.81
2023-02-06T07:01:14.971Z,56.07
2023-02-06T07:03:45.547Z,56.18
2023-02-06T07:06:15.416Z,55.30
2023-02-06T07:08:46.233Z,55.26
2023-02-06T07:11:16.976Z,55.60
2023-02-06T07:13:46.902Z,55.90
2023-02-06T07:16:16.244Z,57.04
2023-02-06T07:18:45.746Z,56.83
2023-02-06T07:21:16.016Z,56.40
2023-02-06T07:23:46.827Z,56.72
2023-02-06T07:26:16.115Z,57.34
2023-02-06T07:28:45.603Z,57.55
2023-02-06T07:31:14.891Z,57.36
2023-02-06T07:33:44.469Z,58.26
2023-02-06T07:36:14.703Z,57.89
2023-02-06T07:38:45.918Z,57.55
2023-02-06T07:41:16.070Z,56.74
2023-02-06T07:43:45.834Z,57.70
2023-02-06T07:46:15.210Z,57.15
2023-02-06T07:48:44.692Z,56.67
2023-02-06T07:51:14.292Z,55.97
2023-02-06T07:53:45.175Z,56.06
2023-02-06T07:56:16.977Z,56.91
2023-02-06T07:58:47.493Z,55.87
2023-02-06T08:01:16.700Z,56.29
2023-02-06T08:03:46.458Z,56.75
2023-02-06T08:06:17.104Z,57.35
2023-02-06T08:08:48.543Z,57.43
2023-02-06T08:11:20.061Z,56.55
2023-02-06T08:13:50.563Z,56.90
2023-02-06T08:16:21.908Z,58.51
2023-02-06T08:18:51.805Z,57.57
2023-02-06T08:21:23.103Z,57.28
2023-02-06T08:23:58.464Z,57.75
2023-02-06T08:26:29.413Z,58.89
2023-02-06T08:29:02.973Z,57.85
2023-02-06T08:31:34.094Z,57.85
2023-02-06T08:34:03.790Z,58.03
2023-02-06T08:36:33.374Z,56.63
2023-02-06T08:39:05.400Z,56.75
2023-02-06T08:41:37.130Z,56.39
2023-02-06T08:44:11.846Z,56.17
2023-02-06T08:46:42.844Z,54.56
2023-02-06T08:49:15.906Z,52.57
2023-02-06T08:51:46.042Z,53.78
2023-02-06T08:54:18.825Z,53.97
2023-02-06T08:56:48.282Z,53.73
2023-02-06T08:59:19.534Z,53.64
2023-02-06T09:01:49.480Z,52.54
2023-02-06T09:04:19.686Z,51.72
2023-02-06T09:06:49.293Z,51.73
2023-02-06T09:09:20.753Z,51.19
2023-02-06T09:11:50.087Z,49.84
2023-02-06T09:14:20.411Z,49.99
2023-02-06T09:16:49.717Z,50.01
2023-02-06T09:19:19.278Z,49.57
2023-02-06T09:21:48.552Z,50.79
2023-02-06T09:24:19.424Z,50.91
2023-02-06T09:27:03.764Z,50.00
2023-02-06T09:29:33.470Z,50.45
2023-02-06T09:32:03.256Z,50.28
2023-02-06T09:34:32.899Z,50.04
2023-02-06T09:37:04.158Z,49.79
2023-02-06T09:39:35.414Z,49.77
2023-02-06T09:42:08.670Z,50.61
2023-02-06T09:44:41.648Z,51.33
2023-02-06T09:47:22.041Z,49.67
2023-02-06T09:49:53.932Z,49.96
2023-02-06T09:52:50.111Z,51.45
2023-02-06T09:55:31.816Z,49.66
2023-02-06T09:58:08.258Z,50.33
2023-02-06T10:00:44.150Z,49.24
2023-02-06T10:03:38.661Z,49.28
2023-02-06T10:06:19.133Z,50.03
2023-02-06T10:08:58.797Z,51.01
2023-02-06T10:11:41.747Z,49.92
2023-02-06T10:14:19.130Z,49.30
2023-02-06T10:16:53.566Z,48.73
2023-02-06T10:19:30.550Z,48.23
2023-02-06T10:22:06.291Z,47.39
2023-02-06T10:24:43.108Z,45.84
2023-02-06T10:27:15.729Z,45.30
2023-02-06T10:29:46.724Z,43.53
2023-02-06T10:32:34.512Z,43.74
2023-02-06T10:35:17.604Z,43.62
2023-02-06T10:38:18.974Z,43.79
2023-02-06T10:40:54.940Z,43.59
2023-02-06T10:43:37.033Z,42.42
2023-02-06T10:46:19.989Z,41.08
2023-02-06T10:48:58.989Z,36.89
2023-02-06T10:51:34.895Z,32.23
2023-02-06T10:54:07.809Z,30.43
2023-02-06T10:56:41.474Z,29.09
2023-02-06T10:59:24.104Z,25.35
2023-02-06T11:01:59.133Z,24.80
2023-02-06T11:04:39.623Z,25.16
2023-02-06T11:07:18.022Z,23.50
2023-02-06T11:09:47.662Z,23.95
2023-02-06T11:12:34.359Z,24.26
2023-02-06T11:15:10.279Z,23.72
2023-02-06T11:17:39.551Z,22.83
2023-02-06T11:20:22.049Z,22.20
2023-02-06T11:22:53.310Z,21.41
2023-02-06T11:25:29.179Z,24.99
2023-02-06T11:27:59.645Z,29.01
2023-02-06T11:30:35.337Z,28.65
2023-02-06T11:33:07.589Z,25.78
2023-02-06T11:35:41.609Z,30.04
2023-02-06T11:38:17.653Z,31.36
2023-02-06T11:40:57.055Z,33.79
2023-02-06T11:43:27.988Z,32.72
2023-02-06T11:46:17.971Z,34.67
2023-02-06T11:49:02.534Z,33.35
2023-02-06T11:51:49.218Z,37.30
2023-02-06T11:54:25.145Z,37.77
2023-02-06T11:57:02.197Z,39.32
2023-02-06T11:59:34.552Z,37.82
2023-02-06T12:02:26.491Z,34.71
2023-02-06T12:05:08.384Z,34.74
2023-02-06T12:07:40.792Z,34.88
2023-02-06T12:10:15.665Z,32.50
2023-02-06T12:12:49.502Z,35.32
2023-02-06T12:15:45.497Z,38.05
2023-02-06T12:18:17.597Z,38.49
2023-02-06T12:20:52.400Z,38.83
2023-02-06T12:23:27.589Z,40.54
2023-02-06T12:26:00.998Z,41.28
2023-02-06T12:28:34.925Z,41.41
2023-02-06T12:31:09.257Z,41.72
2023-02-06T12:33:45.453Z,42.39
2023-02-06T12:36:17.811Z,43.64
2023-02-06T12:38:52.546Z,41.81
2023-02-06T12:41:36.212Z,41.56
2023-02-06T12:44:14.516Z,37.96
2023-02-06T12:46:47.273Z,35.05
2023-02-06T12:49:23.466Z,33.93
2023-02-06T12:51:59.355Z,34.39
2023-02-06T12:54:34.965Z,30.19
2023-02-06T12:57:06.072Z,29.05
2023-02-06T13:00:03.040Z,25.09
2023-02-06T13:03:03.334Z,24.17
2023-02-06T13:05:38.336Z,25.54
2023-02-06T13:08:10.637Z,30.46
2023-02-06T13:10:41.552Z,34.45
2023-02-06T13:13:27.679Z,36.91
2023-02-06T13:16:00.464Z,38.43
2023-02-06T13:18:54.242Z,39.00
2023-02-06T13:21:28.786Z,35.55
2023-02-06T13:24:18.448Z,34.18
2023-02-06T13:27:10.785Z,31.32
2023-02-06T13:29:41.602Z,31.52
2023-02-06T13:32:53.459Z,33.26
2023-02-06T13:35:28.862Z,36.82
2023-02-06T13:38:28.467Z,40.04
2023-02-06T13:41:34.533Z,41.40
2023-02-06T13:44:13.007Z,42.76
2023-02-06T13:47:30.926Z,44.26
2023-02-06T13:50:45.895Z,43.43
2023-02-06T13:53:42.604Z,43.83
2023-02-06T13:56:35.783Z,44.11
2023-02-06T13:59:15.303Z,44.70
2023-02-06T14:01:45.451Z,45.36
2023-02-06T14:04:24.891Z,46.46
2023-02-06T14:07:27.189Z,46.55
2023-02-06T14:10:25.449Z,47.39
2023-02-06T14:13:08.248Z,46.46
2023-02-06T14:15:48.268Z,46.95
2023-02-06T14:18:32.021Z,47.33
2023-02-06T14:21:13.846Z,47.76
2023-02-06T14:24:01.154Z,48.11
2023-02-06T14:26:42.042Z,49.04
2023-02-06T14:29:29.830Z,49.91
2023-02-06T14:32:28.325Z,50.53
2023-02-06T14:35:11.450Z,50.66
2023-02-06T14:37:54.137Z,49.62
2023-02-06T14:40:26.866Z,48.82
2023-02-06T14:42:59.657Z,48.97
2023-02-06T14:45:40.954Z,48.83
2023-02-06T14:48:21.332Z,49.03
2023-02-06T14:50:56.086Z,49.54
2023-02-06T14:53:29.898Z,49.14
2023-02-06T14:56:09.656Z,49.50
2023-02-06T14:58:42.033Z,48.85
2023-02-06T15:01:21.751Z,50.60
2023-02-06T15:03:54.766Z,49.59
2023-02-06T15:06:36.740Z,49.53
2023-02-06T15:09:06.819Z,49.11
2023-02-06T15:11:36.930Z,49.79
2023-02-06T15:14:31.658Z,50.04
2023-02-06T15:17:02.910Z,49.86
2023-02-06T15:19:35.709Z,49.33
2023-02-06T15:22:08.898Z,49.59
2023-02-06T15:24:55.977Z,50.25
2023-02-06T15:27:29.962Z,50.65
2023-02-06T15:30:01.952Z,50.86
2023-02-06T15:32:34.687Z,51.16
2023-02-06T15:35:05.037Z,50.88
2023-02-06T15:37:37.265Z,50.39
2023-02-06T15:40:15.277Z,51.11
2023-02-06T15:42:45.063Z,51.76
2023-02-06T15:45:22.509Z,51.59
2023-02-06T15:47:53.838Z,51.48
2023-02-06T15:50:25.512Z,52.58
2023-02-06T15:52:55.461Z,52.32
2023-02-06T15:55:30.999Z,51.58
2023-02-06T15:58:02.846Z,51.78
2023-02-06T16:00:36.409Z,51.51
2023-02-06T16:03:09.222Z,51.83
2023-02-06T16:05:43.390Z,51.60
2023-02-06T16:08:19.389Z,51.53
2023-02-06T16:10:52.621Z,51.33
2023-02-06T16:13:26.063Z,51.11
2023-02-06T16:16:21.647Z,49.90
2023-02-06T16:18:53.505Z,50.07
2023-02-06T16:21:27.127Z,50.13
2023-02-06T16:24:07.882Z,48.86
2023-02-06T16:26:47.054Z,47.64
2023-02-06T16:29:25.527Z,48.05
2023-02-06T16:32:01.405Z,47.44
2023-02-06T16:34:38.599Z,47.22
2023-02-06T16:37:12.970Z,47.48
2023-02-06T16:39:43.861Z,47.29
2023-02-06T16:42:19.203Z,47.30
2023-02-06T16:44:51.155Z,46.87
2023-02-06T16:47:23.030Z,47.75
2023-02-06T16:49:52.630Z,47.47
2023-02-06T16:52:25.677Z,46.75
2023-02-06T16:54:57.946Z,46.32
2023-02-06T16:57:31.138Z,46.15
2023-02-06T17:00:01.018Z,46.74
2023-02-06T17:02:32.027Z,46.74
2023-02-06T17:05:01.984Z,46.46
2023-02-06T17:07:35.128Z,46.32
2023-02-06T17:10:05.003Z,46.60
2023-02-06T17:12:34.304Z,47.25
2023-02-06T17:15:04.087Z,47.45
2023-02-06T17:17:34.917Z,46.38
2023-02-06T17:20:04.620Z,46.93
2023-02-06T17:22:33.961Z,46.73
2023-02-06T17:25:03.662Z,45.94
2023-02-06T17:27:32.947Z,45.54
2023-02-06T17:30:02.465Z,46.06
2023-02-06T17:32:33.259Z,45.85
2023-02-06T17:35:03.041Z,45.43
2023-02-06T17:37:32.807Z,45.04
2023-02-06T17:40:02.389Z,45.43
2023-02-06T17:42:32.867Z,48.29
2023-02-06T17:45:02.661Z,49.55
2023-02-06T17:47:33.546Z,49.82
2023-02-06T17:50:03.443Z,49.82
2023-02-06T17:52:32.636Z,49.54
2023-02-06T17:55:02.148Z,49.18
2023-02-06T17:57:31.471Z,49.29
2023-02-06T18:00:01.067Z,49.36
2023-02-06T18:02:30.586Z,49.35
2023-02-06T18:05:01.981Z,49.32
2023-02-06T18:07:31.492Z,49.47
2023-02-06T18:10:01.319Z,49.89
2023-02-06T18:12:30.759Z,50.14
2023-02-06T18:15:00.877Z,50.43
2023-02-06T18:17:31.102Z,50.94
2023-02-06T18:20:02.201Z,50.85
2023-02-06T18:22:38.391Z,49.89
2023-02-06T18:25:09.419Z,49.83
2023-02-06T18:27:39.438Z,50.49
2023-02-06T18:30:10.584Z,49.96
2023-02-06T18:32:40.574Z,49.97
2023-02-06T18:35:12.036Z,49.69
2023-02-06T18:37:41.388Z,49.70
2023-02-06T18:40:12.182Z,49.72
2023-02-06T18:42:54.730Z,49.83
2023-02-06T18:45:31.370Z,50.36
2023-02-06T18:48:00.630Z,50.64
2023-02-06T18:50:32.788Z,49.51
2023-02-06T18:53:02.488Z,48.61
2023-02-06T18:55:34.953Z,48.70
2023-02-06T18:58:05.049Z,48.68
2023-02-06T19:00:36.252Z,48.55
2023-02-06T19:03:06.276Z,48.84
2023-02-06T19:05:38.184Z,49.83
2023-02-06T19:08:07.668Z,48.37
2023-02-06T19:10:37.350Z,49.13
2023-02-06T19:13:07.103Z,49.30
2023-02-06T19:15:38.205Z,49.42
2023-02-06T19:18:09.248Z,49.56
2023-02-06T19:20:43.072Z,50.21
2023-02-06T19:23:12.369Z,49.04
2023-02-06T19:25:42.692Z,49.89
2023-02-06T19:28:12.025Z,48.88
2023-02-06T19:30:41.829Z,48.53
2023-02-06T19:33:12.395Z,48.51
2023-02-06T19:35:44.427Z,48.68
2023-02-06T19:38:13.902Z,48.74
2023-02-06T19:40:44.994Z,49.87
2023-02-06T19:43:14.185Z,48.74
2023-02-06T19:45:43.908Z,48.82
2023-02-06T19:48:13.985Z,49.51
2023-02-06T19:50:45.383Z,49.78
2023-02-06T19:53:16.882Z,49.46
2023-02-06T19:55:49.752Z,50.53
2023-02-06T19:58:18.954Z,49.87
2023-02-06T20:00:49.862Z,49.92
2023-02-06T20:03:19.308Z,49.79
2023-02-06T20:05:50.402Z,49.88
2023-02-06T20:08:20.094Z,49.90
2023-02-06T20:10:49.568Z,49.83
2023-02-06T20:13:18.768Z,49.46
2023-02-06T20:15:48.810Z,49.37
2023-02-06T20:18:18.154Z,49.08
2023-02-06T20:20:49.240Z,49.56
2023-02-06T20:23:18.494Z,49.67
2023-02-06T20:25:48.073Z,49.64
2023-02-06T20:28:17.737Z,49.64
2023-02-06T20:30:47.850Z,49.18
2023-02-06T20:33:17.586Z,49.39
2023-02-06T20:35:47.267Z,50.08
2023-02-06T20:38:17.945Z,50.43
2023-02-06T20:40:54.088Z,50.50
2023-02-06T20:43:23.409Z,49.75
2023-02-06T20:45:53.526Z,49.78
2023-02-06T20:48:22.964Z,50.36
2023-02-06T20:50:59.033Z,49.95
2023-02-06T20:53:30.600Z,50.78
2023-02-06T20:56:00.314Z,50.19
2023-02-06T20:58:30.666Z,49.91
2023-02-06T21:01:00.215Z,49.81
2023-02-06T21:03:29.345Z,49.06
2023-02-06T21:06:00.686Z,49.64
2023-02-06T21:08:31.401Z,50.34
2023-02-06T21:11:00.884Z,50.15
2023-02-06T21:13:30.499Z,50.66
2023-02-06T21:16:01.120Z,50.10
2023-02-06T21:18:32.220Z,49.75
2023-02-06T21:21:09.368Z,49.81
2023-02-06T21:23:41.839Z,49.86
2023-02-06T21:26:14.005Z,50.73
2023-02-06T21:28:43.368Z,49.92
2023-02-06T21:31:16.483Z,50.17
2023-02-06T21:33:48.248Z,50.97
2023-02-06T21:36:17.843Z,51.25
2023-02-06T21:38:48.593Z,51.57
2023-02-06T21:41:20.164Z,51.67
2023-02-06T21:43:49.450Z,51.45
2023-02-06T21:46:19.007Z,51.10
2023-02-06T21:48:53.668Z,52.02
2023-02-06T21:51:23.569Z,52.10
2023-02-06T21:53:54.450Z,52.54
2023-02-06T21:56:26.318Z,52.87
2023-02-06T21:58:56.736Z,52.96
2023-02-06T22:01:28.536Z,52.08
2023-02-06T22:03:58.321Z,52.00
2023-02-06T22:06:28.981Z,51.34
2023-02-06T22:09:05.281Z,51.94
2023-02-06T22:11:36.709Z,52.86
2023-02-06T22:14:07.993Z,51.30
2023-02-06T22:16:38.205Z,50.58
2023-02-06T22:19:08.239Z,50.39
2023-02-06T22:21:38.072Z,50.89
2023-02-06T22:24:09.896Z,51.81
2023-02-06T22:26:41.512Z,52.26
2023-02-06T22:29:13.807Z,51.46
2023-02-06T22:31:44.773Z,51.48
2023-02-06T22:34:18.213Z,51.44
2023-02-06T22:36:48.746Z,51.34
2023-02-06T22:39:20.140Z,51.97
2023-02-06T22:41:50.310Z,51.54
2023-02-06T22:44:21.090Z,51.18
2023-02-06T22:46:52.496Z,50.67
2023-02-06T22:49:24.398Z,50.21
2023-02-06T22:51:54.042Z,50.66
2023-02-06T22:54:24.853Z,51.07
2023-02-06T22:56:54.478Z,52.02
2023-02-06T22:59:25.655Z,51.54
2023-02-06T23:01:57.797Z,51.05
2023-02-06T23:04:28.823Z,50.25
2023-02-06T23:06:58.705Z,50.97
2023-02-06T23:09:33.251Z,50.58
2023-02-06T23:12:04.018Z,50.58
2023-02-06T23:14:34.515Z,51.22
2023-02-06T23:17:04.612Z,50.94
2023-02-06T23:19:33.938Z,50.82
2023-02-06T23:22:03.660Z,50.45
2023-02-06T23:24:34.264Z,50.70
2023-02-06T23:27:03.754Z,50.52
2023-02-06T23:29:33.186Z,50.46
2023-02-06T23:32:03.579Z,50.98
2023-02-06T23:34:32.956Z,50.95
2023-02-06T23:37:02.561Z,51.05
2023-02-06T23:39:33.283Z,51.42
2023-02-06T23:42:02.919Z,51.47
2023-02-06T23:44:33.087Z,51.18
2023-02-06T23:47:02.619Z,51.17
2023-02-06T23:49:31.854Z,51.12
2023-02-06T23:52:01.367Z,51.28
2023-02-06T23:54:30.581Z,51.56
2023-02-06T23:57:01.581Z,52.56
2023-02-06T23:59:30.756Z,53.00
